Time;durP1;ratioP1;P1;durP2;ratioP2;P2;SDS_P1;SDS_P2;PMS_P1;PMS_P2;Temp;Humidity;BMP_temperature;BMP_pressure;BME280_temperature;BME280_humidity;BME280_pressure;Samples;Min_cycle;Max_cycle;Signal;HPM_P1;HPM_P2
2022/01/19 00:01:42;;;;;;;9.20;3.83;;;;;;;-3.42;100.00;100907.10;1856839;77;21444;-83
2022/01/19 00:04:08;;;;;;;13.35;4.37;;;;;;;-3.46;100.00;100897.39;1856813;77;20936;-84
2022/01/19 00:06:34;;;;;;;9.33;3.98;;;;;;;-3.47;100.00;100908.06;1856835;77;21025;-83
2022/01/19 00:09:00;;;;;;;9.80;3.80;;;;;;;-3.50;100.00;100904.44;1856806;76;21626;-84
2022/01/19 00:11:26;;;;;;;12.68;4.17;;;;;;;-3.55;100.00;100916.79;1788166;80;21571;-84
2022/01/19 00:13:52;;;;;;;11.53;4.12;;;;;;;-3.57;100.00;100919.25;1788623;80;20984;-84
2022/01/19 00:16:20;;;;;;;13.90;4.17;;;;;;;-3.60;100.00;100923.52;1762258;80;21043;-84
2022/01/19 00:18:47;;;;;;;11.48;3.92;;;;;;;-3.63;100.00;100930.42;1788122;80;21697;-84
2022/01/19 00:21:13;;;;;;;12.15;4.00;;;;;;;-3.66;100.00;100935.50;1787901;80;21577;-84
2022/01/19 00:23:39;;;;;;;9.28;3.90;;;;;;;-3.68;100.00;100944.90;1788228;80;20999;-84
2022/01/19 00:26:05;;;;;;;10.93;3.95;;;;;;;-3.70;100.00;100942.91;1788842;80;20884;-83
2022/01/19 00:28:31;;;;;;;10.63;4.58;;;;;;;-3.74;100.00;100933.66;1788311;80;20979;-84
2022/01/19 00:30:57;;;;;;;11.65;4.25;;;;;;;-3.75;100.00;100937.28;1788259;80;21575;-84
2022/01/19 00:33:23;;;;;;;14.23;4.25;;;;;;;-3.74;100.00;100935.47;1788369;80;20857;-83
2022/01/19 00:35:52;;;;;;;9.93;4.35;;;;;;;-3.73;100.00;100934.50;1815637;77;21010;-83
2022/01/19 00:38:18;;;;;;;10.10;4.00;;;;;;;-3.71;100.00;100935.15;1856983;77;21015;-83
2022/01/19 00:40:45;;;;;;;10.55;4.40;;;;;;;-3.70;100.00;100940.77;1857126;77;21035;-83
2022/01/19 00:43:15;;;;;;;11.10;3.65;;;;;;;-3.67;100.00;100948.35;1856747;77;21033;-83
2022/01/19 00:45:40;;;;;;;8.00;3.30;;;;;;;-3.65;100.00;100942.41;1856197;77;21014;-83
2022/01/19 00:48:06;;;;;;;9.73;3.77;;;;;;;-3.67;100.00;100943.91;1856804;77;21042;-83
2022/01/19 00:50:32;;;;;;;9.73;3.80;;;;;;;-3.68;100.00;100940.95;1856602;76;21492;-84
2022/01/19 00:52:59;;;;;;;11.45;3.37;;;;;;;-3.67;100.00;100942.59;1857067;77;20962;-84
2022/01/19 00:55:27;;;;;;;16.73;4.33;;;;;;;-3.66;100.00;100940.27;1856812;77;21109;-83
2022/01/19 00:57:54;;;;;;;12.75;4.20;;;;;;;-3.68;100.00;100932.20;1856625;77;21022;-84
2022/01/19 01:00:25;;;;;;;16.07;4.55;;;;;;;-3.78;100.00;100919.16;1856683;77;21066;-84
2022/01/19 01:02:51;;;;;;;11.00;3.70;;;;;;;-3.65;100.00;100933.20;1852359;77;21531;-84
2022/01/19 01:05:18;;;;;;;13.30;3.83;;;;;;;-3.65;100.00;100942.41;1856589;77;21034;-84
2022/01/19 01:07:44;;;;;;;12.50;3.75;;;;;;;-3.64;100.00;100948.03;1856642;77;21093;-83
2022/01/19 01:10:14;;;;;;;10.78;3.87;;;;;;;-3.64;100.00;100941.95;1856843;77;20991;-83
2022/01/19 01:12:46;;;;;;;13.25;4.08;;;;;;;-3.64;100.00;100945.90;1856944;77;20991;-83
2022/01/19 01:15:27;;;;;;;12.68;4.30;;;;;;;-3.66;100.00;100949.50;1856348;77;20972;-83
2022/01/19 01:20:38;;;;;;;8.95;3.60;;;;;;;-3.68;100.00;100955.43;1712367;83;21051;-83
2022/01/19 01:23:07;;;;;;;9.60;3.62;;;;;;;-3.70;100.00;100951.30;1712592;83;21024;-84
2022/01/19 01:25:38;;;;;;;7.58;3.20;;;;;;;-3.72;100.00;100960.66;1712645;83;21035;-83
2022/01/19 01:28:05;;;;;;;7.83;3.37;;;;;;;-3.71;100.00;100974.64;1712141;83;21122;-83
2022/01/19 01:30:32;;;;;;;9.23;3.65;;;;;;;-3.70;100.00;100979.77;1712575;83;21047;-83
2022/01/19 01:32:58;;;;;;;9.25;3.22;;;;;;;-3.67;100.00;100987.85;1712680;83;21156;-83
2022/01/19 01:35:24;;;;;;;9.20;3.25;;;;;;;-3.67;100.00;100982.09;1712653;83;21038;-83
2022/01/19 01:37:50;;;;;;;9.23;3.15;;;;;;;-3.64;100.00;100995.44;1712513;83;21064;-83
2022/01/19 01:40:17;;;;;;;14.55;3.95;;;;;;;-3.62;100.00;101002.67;1712493;83;21650;-83
2022/01/19 01:42:44;;;;;;;12.37;4.25;;;;;;;-3.60;100.00;101004.66;1712233;83;21004;-83
2022/01/19 01:45:13;;;;;;;11.68;4.00;;;;;;;-3.58;100.00;101008.47;1712268;83;21961;-84
2022/01/19 01:55:23;;;;;;;11.35;4.42;;;;;;;-3.55;100.00;101017.38;1672989;85;21066;-84
2022/01/19 01:57:50;;;;;;;13.35;3.77;;;;;;;-3.55;100.00;101018.20;1673265;85;21826;-83
2022/01/19 02:00:24;;;;;;;10.58;3.60;;;;;;;-3.53;100.00;101016.23;1673296;85;21136;-83
2022/01/19 02:02:50;;;;;;;10.40;4.12;;;;;;;-3.50;100.00;101009.80;1673345;85;21527;-83
2022/01/19 02:05:17;;;;;;;11.55;3.60;;;;;;;-3.49;100.00;101011.48;1673212;85;21074;-83
2022/01/19 02:23:49;;;;;;;7.05;2.80;;;;;;;-3.42;100.00;101029.61;1760057;81;21138;-83
2022/01/19 02:26:20;;;;;;;7.20;2.80;;;;;;;-3.41;100.00;101029.96;1759666;81;21523;-83
2022/01/19 02:29:03;;;;;;;7.83;3.17;;;;;;;-3.40;100.00;101030.28;1759988;81;21485;-85
2022/01/19 02:42:10;;;;;;;8.08;3.08;;;;;;;-3.29;100.00;101020.78;1759876;81;21083;-82
2022/01/19 02:49:52;;;;;;;5.95;2.55;;;;;;;-3.30;100.00;101024.88;1787411;80;20976;-84
2022/01/19 02:52:20;;;;;;;8.83;3.20;;;;;;;-3.30;100.00;101026.20;1787979;80;28203;-84
2022/01/19 02:54:47;;;;;;;8.03;3.08;;;;;;;-3.30;100.00;101034.92;1787356;80;21487;-83
2022/01/19 02:57:14;;;;;;;7.65;2.70;;;;;;;-3.28;100.00;101035.60;1787780;80;21620;-83
2022/01/19 03:10:35;;;;;;;7.55;2.70;;;;;;;-3.31;100.00;101047.77;1787506;80;21059;-82
2022/01/19 03:13:01;;;;;;;6.10;2.80;;;;;;;-3.31;100.00;101050.41;1787921;80;21077;-82
2022/01/19 03:15:27;;;;;;;6.95;2.50;;;;;;;-3.31;100.00;101057.00;1787860;80;21057;-82
2022/01/19 03:17:58;;;;;;;9.75;2.58;;;;;;;-3.29;100.00;101052.91;1787412;80;21011;-82
2022/01/19 03:20:22;;;;;;;7.28;2.52;;;;;;;-3.29;100.00;101056.36;1786985;80;20992;-82
2022/01/19 03:23:09;;;;;;;6.42;2.50;;;;;;;-3.31;100.00;101054.36;1786575;79;20955;-82
2022/01/19 03:25:37;;;;;;;7.58;2.65;;;;;;;-3.31;100.00;101058.81;1786662;79;20972;-82
2022/01/19 03:27:58;;;;;;;6.53;2.45;;;;;;;-3.33;100.00;101054.19;1811573;79;21015;-82
2022/01/19 03:30:24;;;;;;;6.33;2.30;;;;;;;-3.33;100.00;101050.23;1815957;79;21629;-82
2022/01/19 03:32:50;;;;;;;5.85;2.33;;;;;;;-3.32;100.00;101058.00;1816220;79;20888;-83
2022/01/19 03:35:17;;;;;;;12.47;2.58;;;;;;;-3.31;100.00;101061.45;1816168;78;20840;-82
2022/01/19 03:37:43;;;;;;;7.50;2.30;;;;;;;-3.31;100.00;101071.49;1787883;80;21019;-82
2022/01/19 03:40:10;;;;;;;7.78;2.65;;;;;;;-3.30;100.00;101066.55;1787938;80;21870;-83
2022/01/19 03:42:36;;;;;;;9.30;2.85;;;;;;;-3.30;100.00;101075.77;1786389;80;21574;-83
2022/01/19 03:45:06;;;;;;;7.58;2.58;;;;;;;-3.29;100.00;101080.08;1787841;80;21049;-83
2022/01/19 03:47:39;;;;;;;9.73;3.02;;;;;;;-3.27;100.00;101084.67;1756983;81;20994;-83
2022/01/19 03:50:01;;;;;;;11.63;3.60;;;;;;;-3.27;100.00;101084.67;1785653;80;21062;-83
2022/01/19 03:52:26;;;;;;;6.85;2.80;;;;;;;-3.25;100.00;101082.72;1773818;79;21931;-83
2022/01/19 03:54:52;;;;;;;10.60;3.22;;;;;;;-3.24;100.00;101093.58;1753678;80;20834;-83
2022/01/19 03:57:18;;;;;;;9.73;3.20;;;;;;;-3.22;100.00;101102.17;1780016;80;20897;-83
2022/01/19 03:59:44;;;;;;;11.70;3.40;;;;;;;-3.21;100.00;101102.52;1750565;80;20960;-84
2022/01/19 04:02:10;;;;;;;11.03;3.58;;;;;;;-3.16;100.00;101106.48;1705063;82;20856;-83
2022/01/19 04:04:44;;;;;;;9.50;3.90;;;;;;;-3.13;100.00;101108.80;1732637;80;20958;-83
2022/01/19 04:09:36;;;;;;;8.38;2.98;;;;;;;-3.10;100.00;101121.67;1734903;81;21066;-84
2022/01/19 04:12:04;;;;;;;8.68;3.27;;;;;;;-3.09;100.00;101125.95;1760577;81;21053;-84
2022/01/19 04:14:30;;;;;;;7.62;3.45;;;;;;;-3.10;100.00;101128.26;1760583;81;21046;-84
2022/01/19 04:17:03;;;;;;;8.70;3.77;;;;;;;-3.10;100.00;101133.53;1760615;81;21097;-84
2022/01/19 04:19:32;;;;;;;8.88;3.25;;;;;;;-3.09;100.00;101136.48;1670249;85;21043;-84
2022/01/19 04:22:02;;;;;;;10.68;3.17;;;;;;;-3.09;100.00;101145.72;1669927;85;21142;-84
2022/01/19 04:24:28;;;;;;;7.55;3.37;;;;;;;-3.09;100.00;101145.72;1691935;84;21023;-85
2022/01/19 04:29:40;;;;;;;7.00;2.72;;;;;;;-3.12;100.00;101144.22;1691924;84;21038;-83
2022/01/19 04:32:14;;;;;;;8.25;3.10;;;;;;;-3.11;100.00;101143.25;1662589;86;21016;-84
2022/01/19 04:34:39;;;;;;;13.68;3.83;;;;;;;-3.11;100.00;101148.52;1688197;84;21058;-85
2022/01/19 05:06:48;;;;;;;9.80;3.20;;;;;;;-3.14;100.00;101184.92;1691602;84;21094;-84
2022/01/19 05:09:39;;;;;;;7.80;3.20;;;;;;;-3.15;100.00;101191.97;1662125;86;21013;-84
2022/01/19 05:14:48;;;;;;;;;;;;;;;;;;;;;
2022/01/19 05:17:05;;;;;;;11.35;3.05;;;;;;;-3.09;100.00;101204.56;1548768;91;21157;-84
2022/01/19 05:19:31;;;;;;;8.63;3.00;;;;;;;-3.08;100.00;101211.48;1549951;92;21089;-84
2022/01/19 05:21:57;;;;;;;8.75;3.40;;;;;;;-3.06;100.00;101215.26;1556340;89;21025;-83
2022/01/19 05:24:23;;;;;;;10.38;3.20;;;;;;;-3.05;100.00;101226.16;1612286;89;20859;-83
2022/01/19 05:26:51;;;;;;;7.37;2.87;;;;;;;-3.06;100.00;101221.38;1612471;89;21006;-83
2022/01/19 05:29:17;;;;;;;6.40;2.72;;;;;;;-3.06;100.00;101222.70;1611518;89;21080;-85
2022/01/19 05:31:43;;;;;;;7.37;2.98;;;;;;;-3.05;100.00;101220.39;1612028;88;21101;-84
2022/01/19 05:34:36;;;;;;;9.40;3.42;;;;;;;-3.06;100.00;101225.80;1610898;89;21671;-85
2022/01/19 05:40:28;;;;;;;7.20;2.75;;;;;;;-3.09;100.00;101226.97;1481091;95;21160;-85
2022/01/19 05:42:54;;;;;;;9.63;2.90;;;;;;;-3.09;100.00;101232.23;1491186;93;21101;-84
2022/01/19 05:45:20;;;;;;;6.70;2.70;;;;;;;-3.08;100.00;101231.74;1567399;90;21103;-84
2022/01/19 05:47:46;;;;;;;8.03;2.77;;;;;;;-3.10;100.00;101231.88;1585509;90;21160;-84
2022/01/19 05:50:13;;;;;;;5.47;2.62;;;;;;;-3.08;100.00;101240.97;1598013;87;21608;-85
2022/01/19 05:52:39;;;;;;;7.22;2.90;;;;;;;-3.06;100.00;101235.03;1642415;87;21380;-84
2022/01/19 05:55:06;;;;;;;6.40;2.40;;;;;;;-3.06;100.00;101226.66;1640510;85;21152;-84
2022/01/19 05:57:32;;;;;;;6.50;2.70;;;;;;;-3.08;100.00;101227.29;1672774;85;21636;-85
2022/01/19 05:59:58;;;;;;;9.83;2.40;;;;;;;-3.07;100.00;101237.34;1672326;85;21128;-85
2022/01/19 06:02:24;;;;;;;7.83;2.80;;;;;;;-3.06;100.00;101245.11;1671961;85;20970;-84
2022/01/19 06:04:50;;;;;;;7.37;3.00;;;;;;;-3.04;100.00;101250.21;1669943;85;21068;-85
2022/01/19 06:07:16;;;;;;;7.03;2.80;;;;;;;-3.01;100.00;101252.04;1645278;87;21631;-85
2022/01/19 06:12:12;;;;;;;5.97;2.62;;;;;;;-2.98;100.00;101249.09;1645766;87;21116;-85
2022/01/19 06:14:41;;;;;;;4.97;2.70;;;;;;;-2.97;100.00;101252.09;1677106;84;21069;-84
2022/01/19 06:17:11;;;;;;;5.58;2.35;;;;;;;-2.95;100.00;101249.77;1665731;85;21114;-84
2022/01/19 06:19:39;;;;;;;6.80;2.25;;;;;;;-2.94;100.00;101254.05;1655178;86;21481;-84
2022/01/19 06:22:05;;;;;;;7.42;3.12;;;;;;;-2.92;100.00;101263.47;1659173;85;21119;-85
2022/01/19 06:27:34;;;;;;;10.48;2.62;;;;;;;-2.87;100.00;101264.34;1557903;90;21126;-84
2022/01/19 06:30:06;;;;;;;7.30;2.50;;;;;;;-2.84;100.00;101260.06;1538767;91;33777;-84
2022/01/19 06:32:37;;;;;;;9.90;2.60;;;;;;;-2.81;100.00;101265.85;1585383;90;21112;-85
2022/01/19 06:35:04;;;;;;;9.58;3.15;;;;;;;-2.77;100.00;101276.41;1585626;90;21148;-85
2022/01/19 06:37:30;;;;;;;7.80;2.60;;;;;;;-2.74;100.00;101277.92;1563358;90;21383;-82
2022/01/19 06:39:58;;;;;;;6.90;2.83;;;;;;;-2.73;100.00;101281.41;1542618;91;21179;-84
2022/01/19 06:42:24;;;;;;;10.15;2.75;;;;;;;-2.71;100.00;101281.56;1519856;91;21073;-85
2022/01/19 06:44:50;;;;;;;7.67;2.33;;;;;;;-2.66;100.00;101279.79;1561023;90;21682;-84
2022/01/19 06:47:16;;;;;;;7.62;2.42;;;;;;;-2.67;100.00;101286.06;1575078;91;20923;-85
2022/01/19 06:49:47;;;;;;;7.27;2.73;;;;;;;-2.68;100.00;101289.66;1574712;91;21209;-84
2022/01/19 06:52:13;;;;;;;10.13;3.10;;;;;;;-2.66;100.00;101293.80;1599319;88;21381;-84
2022/01/19 06:54:39;;;;;;;9.98;2.65;;;;;;;-2.63;100.00;101300.58;1589501;89;21165;-84
2022/01/19 06:57:05;;;;;;;6.58;2.45;;;;;;;-2.62;100.00;101303.55;1600235;89;21004;-85
2022/01/19 06:59:31;;;;;;;6.47;2.30;;;;;;;-2.61;100.00;101311.81;1600409;89;21070;-85
2022/01/19 07:01:57;;;;;;;6.90;2.50;;;;;;;-2.59;100.00;101316.42;1600317;89;21911;-85
2022/01/19 07:04:30;;;;;;;6.62;2.72;;;;;;;-2.58;100.00;101318.92;1578878;89;20930;-83
2022/01/19 07:06:57;;;;;;;8.93;2.67;;;;;;;-2.59;100.00;101315.10;1543051;91;21120;-84
2022/01/19 07:09:24;;;;;;;10.15;3.17;;;;;;;-2.57;100.00;101319.74;1544570;92;21076;-83
2022/01/19 07:11:50;;;;;;;8.93;3.12;;;;;;;-2.49;100.00;101328.20;1543638;91;21259;-84
2022/01/19 07:14:17;;;;;;;7.10;2.50;;;;;;;-2.39;100.00;101329.73;1544297;92;21159;-84
2022/01/19 07:16:45;;;;;;;5.30;2.47;;;;;;;-2.26;100.00;101322.73;1549878;91;21659;-84
2022/01/19 07:19:13;;;;;;;9.05;3.08;;;;;;;-2.25;100.00;101323.05;1565665;91;21153;-84
2022/01/19 07:21:42;;;;;;;5.85;2.30;;;;;;;-2.24;100.00;101326.52;1565220;91;20996;-85
2022/01/19 07:24:16;;;;;;;7.50;2.90;;;;;;;-2.19;100.00;101326.38;1546621;91;21147;-84
2022/01/19 07:26:45;;;;;;;13.30;2.95;;;;;;;-2.18;100.00;101330.66;1533404;93;21181;-83
2022/01/19 07:29:13;;;;;;;7.65;2.45;;;;;;;-2.18;100.00;101334.62;1536744;92;21114;-84
2022/01/19 07:31:40;;;;;;;10.43;2.55;;;;;;;-2.23;100.00;101338.25;1544297;90;21107;-84
2022/01/19 07:34:11;;;;;;;7.60;2.10;;;;;;;-2.21;100.00;101343.36;1577406;90;21730;-82
2022/01/19 07:36:43;;;;;;;5.85;2.40;;;;;;;-2.19;100.00;101344.86;1577457;90;21140;-83
2022/01/19 07:39:11;;;;;;;8.98;2.15;;;;;;;-2.18;100.00;101345.67;1576882;90;21642;-83
2022/01/19 07:41:49;;;;;;;9.85;2.30;;;;;;;-2.11;100.00;101342.76;1577286;90;20900;-82
2022/01/19 07:44:15;;;;;;;6.42;2.30;;;;;;;-2.09;100.00;101343.41;1480324;96;21248;-84
2022/01/19 07:46:45;;;;;;;5.35;2.37;;;;;;;-2.06;100.00;101336.48;1480378;96;21128;-83
2022/01/19 07:49:11;;;;;;;7.00;2.67;;;;;;;-2.06;100.00;101336.02;1465712;97;21153;-83
2022/01/19 07:51:37;;;;;;;5.72;2.10;;;;;;;-2.03;100.00;101337.98;1475645;96;21880;-83
2022/01/19 07:54:05;;;;;;;5.08;2.20;;;;;;;-2.05;100.00;101336.84;1483951;96;21541;-84
2022/01/19 07:56:31;;;;;;;5.58;2.10;;;;;;;-2.05;100.00;101331.56;1449783;98;21115;-83
2022/01/19 07:58:57;;;;;;;10.03;2.10;;;;;;;-2.04;100.00;101335.02;1429513;98;21070;-84
2022/01/19 08:01:23;;;;;;;6.03;2.05;;;;;;;-1.98;100.00;101344.95;1415824;98;21798;-83
2022/01/19 08:03:51;;;;;;;4.55;2.10;;;;;;;-1.98;100.00;101340.48;1417221;97;21144;-83
2022/01/19 08:06:17;;;;;;;5.60;1.80;;;;;;;-1.99;100.00;101339.34;1447306;97;21518;-83
2022/01/19 08:08:43;;;;;;;5.55;1.80;;;;;;;-2.05;100.00;101335.52;1447750;97;20985;-83
2022/01/19 08:11:09;;;;;;;4.83;2.08;;;;;;;-2.04;100.00;101333.20;1461115;96;21586;-84
2022/01/19 08:13:35;;;;;;;5.87;2.00;;;;;;;-2.09;100.00;101327.09;1466854;96;21107;-84
2022/01/19 08:16:01;;;;;;;5.85;2.00;;;;;;;-2.06;100.00;101321.50;1456704;96;21713;-84
2022/01/19 08:18:27;;;;;;;7.67;2.20;;;;;;;-2.03;100.00;101327.42;1465103;96;21025;-84
2022/01/19 08:20:53;;;;;;;5.85;2.05;;;;;;;-2.01;100.00;101330.74;1469018;96;21119;-83
2022/01/19 08:23:19;;;;;;;7.78;2.10;;;;;;;-2.03;100.00;101332.20;1468992;96;20929;-83
2022/01/19 08:25:45;;;;;;;5.83;2.30;;;;;;;-2.01;100.00;101339.98;1468871;96;20941;-84
2022/01/19 08:28:11;;;;;;;10.13;2.40;;;;;;;-2.01;100.00;101341.30;1468590;96;21228;-85
2022/01/19 08:30:40;;;;;;;4.45;2.12;;;;;;;-1.99;100.00;101329.60;1468837;96;21075;-84
2022/01/19 08:33:06;;;;;;;6.62;2.02;;;;;;;-1.97;100.00;101329.42;1468449;96;21155;-84
2022/01/19 08:35:34;;;;;;;5.78;2.27;;;;;;;-1.95;100.00;101327.46;1485543;94;21175;-83
2022/01/19 08:38:01;;;;;;;7.95;2.70;;;;;;;-1.91;100.00;101322.19;1487698;94;21092;-83
2022/01/19 08:40:29;;;;;;;7.08;2.02;;;;;;;-1.93;100.00;101320.22;1505418;93;21275;-83
2022/01/19 08:42:55;;;;;;;7.53;2.25;;;;;;;-1.96;100.00;101327.96;1522333;93;21155;-83
2022/01/19 08:45:25;;;;;;;8.40;2.30;;;;;;;-2.00;100.00;101328.42;1560675;84;21743;-83
2022/01/19 08:47:52;;;;;;;6.75;2.27;;;;;;;-2.00;100.00;101321.36;1672628;84;21597;-83
2022/01/19 08:50:19;;;;;;;7.03;2.27;;;;;;;-2.00;100.00;101324.47;1674512;84;21097;-83
2022/01/19 08:52:47;;;;;;;7.05;1.85;;;;;;;-1.95;100.00;101322.18;1695641;80;21129;-83
2022/01/19 08:55:15;;;;;;;5.67;2.33;;;;;;;-1.91;100.00;101320.86;1777398;80;21021;-84
2022/01/19 08:57:46;;;;;;;7.30;2.10;;;;;;;-1.88;100.00;101324.53;1777700;80;20981;-82
2022/01/19 09:00:14;;;;;;;4.83;2.42;;;;;;;-1.73;100.00;101331.34;1776616;80;21052;-84
2022/01/19 09:02:41;;;;;;;9.50;2.70;;;;;;;-1.66;100.00;101327.06;1777627;80;20938;-84
2022/01/19 09:05:11;;;;;;;7.45;2.10;;;;;;;-1.62;100.00;101329.23;1777652;80;21126;-83
2022/01/19 09:07:42;;;;;;;7.28;2.60;;;;;;;-1.63;100.00;101325.41;1777210;80;21490;-84
2022/01/19 09:10:12;;;;;;;8.45;2.10;;;;;;;-1.59;100.00;101329.38;1721880;83;21038;-84
2022/01/19 09:12:43;;;;;;;6.85;2.30;;;;;;;-1.51;100.00;101330.72;1722177;83;21159;-84
2022/01/19 09:15:15;;;;;;;9.13;2.45;;;;;;;-1.45;100.00;101336.67;1721866;83;21586;-83
2022/01/19 09:17:42;;;;;;;5.78;2.05;;;;;;;-1.45;100.00;101334.03;1662969;84;21079;-84
2022/01/19 09:20:11;;;;;;;9.65;2.35;;;;;;;-1.45;100.00;101333.21;1663138;86;21078;-84
2022/01/19 09:22:42;;;;;;;7.30;2.47;;;;;;;-1.39;100.00;101333.38;1634953;87;21090;-84
2022/01/19 09:25:10;;;;;;;6.03;2.42;;;;;;;-1.30;100.00;101329.44;1569994;91;21087;-82
2022/01/19 09:27:38;;;;;;;6.37;2.20;;;;;;;-1.29;100.00;101325.31;1571112;91;21100;-84
2022/01/19 09:30:09;;;;;;;4.83;2.20;;;;;;;-1.21;100.00;101322.66;1545360;92;21153;-83
2022/01/19 09:32:42;;;;;;;9.90;1.90;;;;;;;-1.18;100.00;101329.44;1550589;92;21101;-84
2022/01/19 09:35:11;;;;;;;;;;;;;;;-1.07;100.00;101328.30;1550845;92;21428;-84
2022/01/19 09:37:39;;;;;;;4.45;2.20;;;;;;;-1.05;100.00;101339.05;1551185;92;20167;-82
2022/01/19 09:40:07;;;;;;;7.08;2.65;;;;;;;-1.16;100.00;101340.19;1542188;92;21147;-83
2022/01/19 09:42:34;;;;;;;8.50;2.92;;;;;;;-1.33;100.00;101342.48;1532464;92;21138;-83
2022/01/19 09:45:01;;;;;;;6.05;2.50;;;;;;;-1.30;100.00;101347.44;1522332;92;21129;-84
2022/01/19 09:47:27;;;;;;;5.67;2.40;;;;;;;-1.27;100.00;101351.08;1524240;93;21139;-83
2022/01/19 09:49:53;;;;;;;5.78;2.30;;;;;;;-1.29;100.00;101353.58;1514054;93;20986;-83
2022/01/19 09:52:20;;;;;;;5.55;2.50;;;;;;;-1.33;100.00;101354.38;1512548;93;21310;-83
2022/01/19 09:54:46;;;;;;;5.72;2.10;;;;;;;-1.29;100.00;101351.75;1544354;91;21315;-83
2022/01/19 09:57:13;;;;;;;5.62;2.15;;;;;;;-1.33;100.00;101343.80;1540634;91;21094;-83
2022/01/19 09:59:39;;;;;;;8.00;2.10;;;;;;;-1.34;100.00;101347.95;1540862;91;21107;-83
2022/01/19 10:02:09;;;;;;;5.55;2.30;;;;;;;-1.37;100.00;101353.88;1569228;90;20935;-84
2022/01/19 10:04:42;;;;;;;5.33;2.10;;;;;;;-1.46;100.00;101346.93;1553013;91;21687;-84
2022/01/19 10:07:22;;;;;;;5.35;2.20;;;;;;;-1.44;100.00;101346.75;1576712;89;21270;-84
2022/01/19 10:10:02;;;;;;;6.58;2.58;;;;;;;-1.37;100.00;101356.52;1605642;88;21074;-84
2022/01/19 10:18:46;;;;;;;;;;;;;;;;;;;;;
2022/01/19 10:21:15;;;;;;;4.80;2.15;;;;;;;-1.43;100.00;101350.56;1476863;96;21161;-84
2022/01/19 10:23:55;;;;;;;8.38;2.20;;;;;;;-1.40;100.00;101349.42;1437040;98;21210;-84
2022/01/19 10:26:30;;;;;;;5.45;2.20;;;;;;;-1.38;100.00;101353.56;1455432;97;21768;-84
2022/01/19 10:29:09;;;;;;;6.55;2.25;;;;;;;-1.46;100.00;101353.53;1455599;97;21142;-84
2022/01/19 10:31:38;;;;;;;5.17;2.12;;;;;;;-1.46;100.00;101356.68;1455838;98;21109;-84
2022/01/19 10:34:22;;;;;;;6.17;2.25;;;;;;;-1.52;100.00;101350.22;1456070;98;21168;-84
2022/01/19 10:37:02;;;;;;;6.53;2.30;;;;;;;-1.54;100.00;101345.58;1455593;98;21160;-84
2022/01/19 10:42:23;;;;;;;6.72;1.87;;;;;;;-1.61;100.00;101348.55;1314701;107;21777;-83
2022/01/19 10:44:56;;;;;;;4.80;1.95;;;;;;;-1.68;100.00;101346.20;1350180;102;21788;-84
2022/01/19 10:47:50;;;;;;;4.95;2.20;;;;;;;-1.68;100.00;101338.27;1410896;100;21166;-81
2022/01/19 10:50:31;;;;;;;6.72;2.40;;;;;;;-1.62;100.00;101332.34;1435077;99;21184;-84
2022/01/19 10:53:02;;;;;;;4.10;1.95;;;;;;;-1.52;100.00;101343.61;1398066;101;21221;-84
2022/01/19 10:55:41;;;;;;;5.83;1.98;;;;;;;-1.51;100.00;101341.30;1388340;102;21637;-84
2022/01/19 10:58:17;;;;;;;6.53;1.85;;;;;;;-1.50;100.00;101342.97;1356460;105;21339;-84
2022/01/19 11:00:54;;;;;;;5.35;2.00;;;;;;;-1.47;100.00;101346.61;1393835;102;21237;-84
2022/01/19 11:03:28;;;;;;;4.40;1.80;;;;;;;-1.39;100.00;101343.13;1372339;104;21126;-83
2022/01/19 11:05:58;;;;;;;6.65;1.80;;;;;;;-1.24;100.00;101348.60;1372158;104;21273;-85
2022/01/19 11:08:28;;;;;;;4.42;2.08;;;;;;;-1.27;100.00;101351.08;1370978;103;21113;-83
2022/01/19 11:10:58;;;;;;;3.75;1.90;;;;;;;-1.30;100.00;101351.91;1371320;104;21086;-83
2022/01/19 11:13:34;;;;;;;7.33;2.42;;;;;;;-1.30;100.00;101359.84;1370740;104;21564;-83
2022/01/19 11:16:05;;;;;;;6.50;1.95;;;;;;;-1.29;100.00;101355.72;1372891;102;21220;-84
2022/01/19 11:18:37;;;;;;;8.33;2.42;;;;;;;-1.25;100.00;101351.75;1389017;101;21206;-84
2022/01/19 11:21:12;;;;;;;7.53;2.17;;;;;;;-1.26;100.00;101360.68;1367240;103;21080;-84
2022/01/19 11:24:07;;;;;;;4.17;1.98;;;;;;;-1.26;100.00;101362.50;1365404;103;21537;-85
2022/01/19 11:26:37;;;;;;;7.40;2.35;;;;;;;-1.26;100.00;101358.54;1334289;107;21177;-85
2022/01/19 11:32:53;;;;;;;5.20;2.30;;;;;;;-1.33;100.00;101368.91;1331885;106;21753;-84
2022/01/19 11:35:35;;;;;;;4.67;2.12;;;;;;;-1.49;100.00;101369.72;1326296;107;21206;-82
2022/01/19 11:38:21;;;;;;;5.45;2.30;;;;;;;-1.49;100.00;101376.83;1314829;109;21155;-83
2022/01/19 11:40:47;;;;;;;4.60;2.22;;;;;;;-1.54;100.00;101373.83;1314955;109;21242;-84
2022/01/19 11:43:25;;;;;;;5.33;2.40;;;;;;;-1.55;100.00;101374.83;1314896;109;21149;-83
2022/01/19 11:45:51;;;;;;;4.45;2.25;;;;;;;-1.59;100.00;101374.30;1311197;107;21675;-83
2022/01/19 11:51:18;;;;;;;4.85;1.98;;;;;;;-1.59;100.00;101376.94;1297828;108;21275;-85
2022/01/19 11:57:15;;;;;;;;;;;;;;;;;;;;;
2022/01/19 11:59:57;;;;;;;8.03;2.62;;;;;;;-1.59;100.00;101379.59;1271789;110;21074;-84
2022/01/19 12:02:36;;;;;;;4.58;2.35;;;;;;;-1.63;100.00;101383.55;1271323;112;21145;-85
2022/01/19 12:05:16;;;;;;;12.80;3.08;;;;;;;-1.74;100.00;101389.94;1289792;110;21176;-85
2022/01/19 12:08:01;;;;;;;5.45;1.87;;;;;;;-1.74;100.00;101397.05;1315816;107;21667;-85
2022/01/19 12:10:48;;;;;;;4.30;2.15;;;;;;;-1.79;100.00;101388.76;1256704;112;21661;-85
2022/01/19 12:17:27;;;;;;;6.20;2.75;;;;;;;-1.76;100.00;101392.44;1234311;113;21295;-84
2022/01/19 12:19:57;;;;;;;;;;;;;;;-1.83;100.00;101394.36;1258711;113;21178;-82
2022/01/19 12:22:28;;;;;;;5.08;2.40;;;;;;;-1.91;100.00;101407.55;1257647;111;20265;-84
2022/01/19 12:25:11;;;;;;;6.92;2.52;;;;;;;-1.94;100.00;101395.13;1304021;107;21935;-86
2022/01/19 12:27:58;;;;;;;5.87;2.47;;;;;;;-1.99;100.00;101400.08;1361827;104;21204;-85
2022/01/19 12:30:27;;;;;;;8.20;2.42;;;;;;;-2.08;100.00;101404.49;1345177;105;21707;-85
2022/01/19 12:33:00;;;;;;;6.67;3.00;;;;;;;-2.12;100.00;101415.86;1345303;105;21682;-87
2022/01/19 12:35:37;;;;;;;7.53;2.33;;;;;;;-2.14;100.00;101413.05;1345107;105;21285;-83
2022/01/19 12:38:08;;;;;;;7.47;2.45;;;;;;;-2.11;100.00;101417.52;1348386;105;21112;-86
2022/01/19 12:40:51;;;;;;;5.60;2.35;;;;;;;-2.21;100.00;101428.66;1369557;102;22271;-84
2022/01/19 12:43:55;;;;;;;7.60;2.55;;;;;;;-2.30;100.00;101429.59;1358247;103;21126;-84
2022/01/19 12:46:27;;;;;;;6.03;2.58;;;;;;;-2.32;100.00;101432.89;1364243;102;21146;-86
2022/01/19 12:48:55;;;;;;;8.55;2.50;;;;;;;-2.40;100.00;101433.66;1394868;100;21165;-84
2022/01/19 12:51:40;;;;;;;4.58;2.37;;;;;;;-2.42;100.00;101434.78;1400412;100;21202;-84
2022/01/19 12:54:47;;;;;;;;;;;;;;;;;;;;;
2022/01/19 12:57:15;;;;;;;6.03;2.30;;;;;;;-2.43;100.00;101426.55;1248498;113;21163;-85
2022/01/19 12:59:38;;;;;;;5.33;2.77;;;;;;;-2.55;100.00;101428.10;1305072;108;21321;-86
2022/01/19 13:02:05;;;;;;;5.28;2.58;;;;;;;-2.54;100.00;101423.16;1293218;110;21162;-85
2022/01/19 13:04:36;;;;;;;5.28;2.47;;;;;;;-2.54;100.00;101421.83;1293162;110;21739;-86
2022/01/19 13:07:30;;;;;;;5.47;2.52;;;;;;;-2.49;100.00;101415.28;1297513;110;21246;-85
2022/01/19 13:10:25;;;;;;;6.33;2.58;;;;;;;-2.44;100.00;101416.95;1294299;109;21164;-86
2022/01/19 13:12:59;;;;;;;8.93;3.10;;;;;;;-2.52;100.00;101412.45;1310760;109;21655;-85
2022/01/19 13:15:47;;;;;;;7.10;2.85;;;;;;;-2.51;100.00;101419.38;1310857;109;21206;-85
2022/01/19 13:18:35;;;;;;;6.53;2.62;;;;;;;-2.46;100.00;101414.48;1310633;109;21177;-86
2022/01/19 13:21:07;;;;;;;4.40;2.30;;;;;;;-2.54;100.00;101420.52;1309330;108;21256;-83
2022/01/19 13:23:37;;;;;;;6.12;2.87;;;;;;;-2.63;100.00;101415.34;1289203;109;21732;-83
2022/01/19 13:26:12;;;;;;;4.72;2.17;;;;;;;-2.61;100.00;101434.48;1272856;110;21193;-84
2022/01/19 13:28:38;;;;;;;4.53;2.15;;;;;;;-2.66;100.00;101432.30;1285628;110;21303;-84
2022/01/19 13:31:23;;;;;;;6.90;2.70;;;;;;;-2.64;100.00;101440.07;1296066;108;21741;-86
2022/01/19 13:33:59;;;;;;;6.12;2.75;;;;;;;-2.69;100.00;101448.42;1357862;104;21194;-87
2022/01/19 13:36:33;;;;;;;7.05;2.75;;;;;;;-2.73;100.00;101448.90;1342896;104;22195;-87